createdAt,value
2022-12-25T00:04:08.229Z,0.80
2022-12-25T00:09:11.239Z,0.75
2022-12-25T00:14:13.030Z,1.02
2022-12-25T00:19:14.880Z,0.60
2022-12-25T00:24:16.998Z,1.30
2022-12-25T00:29:18.821Z,0.60
2022-12-25T00:34:20.882Z,0.80
2022-12-25T00:39:23.050Z,0.70
2022-12-25T00:44:25.015Z,0.75
2022-12-25T00:49:26.834Z,0.60
2022-12-25T00:54:28.689Z,0.80
2022-12-25T00:59:34.618Z,0.77
2022-12-25T01:04:36.606Z,0.60
2022-12-25T01:09:57.762Z,0.70
2022-12-25T01:15:00.974Z,0.50
2022-12-25T01:20:03.302Z,0.57
2022-12-25T01:25:06.518Z,1.05
2022-12-25T01:30:09.141Z,0.68
2022-12-25T01:35:12.218Z,0.40
2022-12-25T01:40:14.205Z,0.70
2022-12-25T01:45:36.780Z,0.57
2022-12-25T01:50:40.983Z,0.70
2022-12-25T01:55:46.373Z,0.70
2022-12-25T02:00:48.563Z,0.77
2022-12-25T02:05:51.885Z,0.47
2022-12-25T02:10:53.833Z,0.60
2022-12-25T02:16:06.237Z,0.65
2022-12-25T02:21:39.013Z,0.55
2022-12-25T02:27:07.461Z,0.63
2022-12-25T02:32:24.617Z,0.50
2022-12-25T02:37:32.870Z,0.43
2022-12-25T02:43:03.736Z,0.80
2022-12-25T02:48:25.621Z,0.60
2022-12-25T02:53:46.625Z,0.57
2022-12-25T02:59:08.520Z,0.50
2022-12-25T03:04:34.529Z,0.40
2022-12-25T03:10:00.030Z,0.70
2022-12-25T03:15:21.354Z,0.40
2022-12-25T03:20:41.976Z,0.50
2022-12-25T03:26:03.417Z,0.45
2022-12-25T03:31:17.495Z,0.60
2022-12-25T03:36:28.388Z,0.45
2022-12-25T03:42:14.344Z,0.63
2022-12-25T03:47:58.171Z,0.65
2022-12-25T03:53:22.674Z,0.40
2022-12-25T03:58:44.990Z,0.52
2022-12-25T04:04:05.448Z,0.28
2022-12-25T04:09:25.967Z,0.60
2022-12-25T04:14:46.370Z,0.45
2022-12-25T04:20:20.504Z,0.40
2022-12-25T04:26:00.439Z,0.50
2022-12-25T04:31:21.226Z,0.63
2022-12-25T04:36:23.177Z,0.25
2022-12-25T04:41:25.099Z,0.50
2022-12-25T04:46:27.133Z,0.30
2022-12-25T04:51:29.018Z,0.30
2022-12-25T04:56:30.857Z,0.55
2022-12-25T05:01:33.364Z,0.30
2022-12-25T05:06:35.355Z,0.22
2022-12-25T05:11:37.209Z,0.30
2022-12-25T05:16:39.080Z,0.32
2022-12-25T05:21:41.054Z,0.28
2022-12-25T05:26:42.913Z,0.30
2022-12-25T05:31:44.857Z,0.30
2022-12-25T05:36:47.241Z,0.40
2022-12-25T05:41:49.364Z,0.20
2022-12-25T05:46:51.300Z,0.20
2022-12-25T05:51:53.408Z,0.20
2022-12-25T05:56:55.188Z,0.20
2022-12-25T06:01:57.397Z,0.25
2022-12-25T06:06:59.316Z,0.20
2022-12-25T06:12:01.124Z,0.20
2022-12-25T06:17:03.171Z,0.17
2022-12-25T06:22:05.292Z,0.40
2022-12-25T06:27:07.318Z,0.63
2022-12-25T06:32:09.114Z,0.40
2022-12-25T06:37:11.120Z,0.35
2022-12-25T06:42:12.993Z,0.20
2022-12-25T06:47:18.275Z,0.40
2022-12-25T06:52:20.155Z,0.30
2022-12-25T06:57:22.124Z,0.30
2022-12-25T07:02:25.359Z,0.22
2022-12-25T07:07:27.449Z,0.30
2022-12-25T07:12:29.484Z,0.30
2022-12-25T07:17:31.359Z,0.20
2022-12-25T07:22:33.317Z,0.10
2022-12-25T07:27:35.144Z,0.20
2022-12-25T07:32:37.427Z,0.90
2022-12-25T07:37:39.566Z,0.55
2022-12-25T07:42:41.489Z,0.80
2022-12-25T07:47:43.668Z,1.02
2022-12-25T07:52:47.305Z,1.38
2022-12-25T07:57:49.302Z,1.02
2022-12-25T08:02:51.277Z,1.23
2022-12-25T08:07:57.655Z,1.00
2022-12-25T08:12:59.908Z,1.23
2022-12-25T08:18:01.806Z,1.35
2022-12-25T08:23:04.818Z,0.77
2022-12-25T08:28:06.820Z,0.40
2022-12-25T08:33:09.421Z,1.67
2022-12-25T08:38:11.562Z,1.35
2022-12-25T08:43:13.812Z,1.20
2022-12-25T08:48:15.886Z,1.33
2022-12-25T08:53:18.221Z,1.20
2022-12-25T08:58:20.121Z,1.40
2022-12-25T09:03:22.656Z,1.15
2022-12-25T09:08:24.729Z,1.00
2022-12-25T09:13:26.679Z,1.58
2022-12-25T09:18:28.441Z,1.02
2022-12-25T09:23:31.021Z,1.30
2022-12-25T09:28:34.360Z,1.10
2022-12-25T09:33:36.138Z,1.10
2022-12-25T09:38:38.205Z,1.25
2022-12-25T09:43:56.381Z,0.82
2022-12-25T09:49:36.047Z,0.80
2022-12-25T09:54:46.736Z,1.02
2022-12-25T09:59:48.633Z,1.00
2022-12-25T10:05:06.924Z,0.70
2022-12-25T10:10:27.377Z,0.98
2022-12-25T10:15:40.407Z,0.70
2022-12-25T10:20:53.593Z,0.82
2022-12-25T10:25:56.036Z,0.95
2022-12-25T10:31:02.454Z,1.08
2022-12-25T10:36:04.842Z,1.15
2022-12-25T10:41:32.528Z,0.75
2022-12-25T10:46:34.440Z,0.50
2022-12-25T10:51:38.440Z,1.02
2022-12-25T10:56:40.290Z,0.80
2022-12-25T11:01:42.647Z,0.52
2022-12-25T11:06:45.435Z,0.75
2022-12-25T11:11:48.454Z,0.77
2022-12-25T11:16:50.933Z,0.90
2022-12-25T11:21:56.084Z,0.70
2022-12-25T11:27:00.618Z,0.70
2022-12-25T11:32:04.364Z,0.90
2022-12-25T11:37:13.209Z,0.80
2022-12-25T11:42:24.769Z,0.80
2022-12-25T11:47:35.272Z,0.75
2022-12-25T11:52:40.573Z,0.60
2022-12-25T11:57:46.175Z,0.88
2022-12-25T12:03:24.390Z,0.43
2022-12-25T12:08:26.515Z,0.50
2022-12-25T12:13:51.443Z,0.60
2022-12-25T12:18:53.722Z,1.77
2022-12-25T12:24:17.441Z,1.73
2022-12-25T12:29:29.521Z,1.42
2022-12-25T12:34:52.034Z,0.90
2022-12-25T12:39:55.659Z,1.80
2022-12-25T12:45:06.950Z,1.65
2022-12-25T12:50:28.810Z,1.08
2022-12-25T12:55:34.271Z,2.00
2022-12-25T13:01:16.629Z,1.08
2022-12-25T13:06:35.576Z,1.27
2022-12-25T13:11:41.755Z,1.75
2022-12-25T13:16:46.744Z,1.27
2022-12-25T13:22:00.684Z,1.10
2022-12-25T13:27:16.476Z,1.33
2022-12-25T13:32:26.823Z,1.10
2022-12-25T13:37:31.295Z,0.93
2022-12-25T13:42:40.015Z,0.90
2022-12-25T13:47:43.704Z,0.68
2022-12-25T13:52:45.674Z,0.93
2022-12-25T13:57:50.728Z,0.70
2022-12-25T14:02:53.963Z,1.48
2022-12-25T14:07:58.193Z,1.40
2022-12-25T14:13:04.034Z,1.00
2022-12-25T14:18:06.408Z,0.75
2022-12-25T14:23:16.195Z,0.52
2022-12-25T14:28:32.820Z,0.73
2022-12-25T14:33:39.511Z,0.80
2022-12-25T14:38:44.328Z,0.88
2022-12-25T14:43:55.822Z,0.80
2022-12-25T14:49:05.534Z,0.82
2022-12-25T14:54:18.178Z,0.70
2022-12-25T14:59:27.136Z,0.43
2022-12-25T15:04:30.336Z,0.52
2022-12-25T15:09:32.361Z,0.73
2022-12-25T15:14:36.816Z,0.60
2022-12-25T15:19:39.223Z,0.82
2022-12-25T15:24:41.901Z,0.40
2022-12-25T15:30:09.135Z,0.77
2022-12-25T15:35:07.032Z,0.80
2022-12-25T15:40:12.198Z,0.68
2022-12-25T15:45:25.766Z,0.80
2022-12-25T15:50:27.829Z,0.60
2022-12-25T15:55:29.738Z,0.70
2022-12-25T16:00:32.052Z,0.60
2022-12-25T16:05:34.240Z,0.50
2022-12-25T16:10:38.971Z,0.52
2022-12-25T16:15:42.387Z,0.52
2022-12-25T16:20:44.361Z,0.80
2022-12-25T16:25:46.376Z,0.57
2022-12-25T16:30:48.852Z,0.70
2022-12-25T16:35:53.021Z,0.70
2022-12-25T16:40:57.128Z,0.60
2022-12-25T16:45:59.093Z,0.52
2022-12-25T16:51:01.454Z,0.60
2022-12-25T16:56:11.575Z,0.70
2022-12-25T17:01:16.723Z,0.93
2022-12-25T17:06:27.191Z,0.40
2022-12-25T17:11:30.437Z,0.60
2022-12-25T17:16:35.398Z,0.52
2022-12-25T17:21:38.682Z,0.50
2022-12-25T17:26:41.760Z,0.80
2022-12-25T17:31:43.683Z,0.82
2022-12-25T17:36:45.737Z,0.50
2022-12-25T17:41:50.859Z,0.50
2022-12-25T17:46:53.482Z,0.40
2022-12-25T17:51:55.747Z,0.40
2022-12-25T17:56:57.819Z,0.50
2022-12-25T18:02:00.205Z,0.60
2022-12-25T18:07:04.139Z,0.57
2022-12-25T18:12:06.526Z,0.65
2022-12-25T18:17:08.575Z,0.60
2022-12-25T18:22:10.849Z,0.70
2022-12-25T18:27:12.788Z,0.60
2022-12-25T18:32:14.741Z,0.45
2022-12-25T18:37:16.973Z,0.50
2022-12-25T18:42:37.558Z,0.43
2022-12-25T18:47:39.827Z,0.50
2022-12-25T18:52:49.908Z,0.60
2022-12-25T18:57:53.667Z,0.82
2022-12-25T19:02:59.467Z,0.60
2022-12-25T19:08:01.815Z,0.60
2022-12-25T19:13:04.141Z,0.63
2022-12-25T19:18:06.089Z,0.73
2022-12-25T19:23:08.910Z,0.60
2022-12-25T19:28:10.952Z,0.70
2022-12-25T19:33:17.639Z,0.50
2022-12-25T19:38:20.721Z,0.60
2022-12-25T19:43:22.718Z,0.77
2022-12-25T19:48:24.837Z,0.93
2022-12-25T19:53:27.680Z,0.63
2022-12-25T19:58:30.465Z,0.73
2022-12-25T20:03:33.885Z,0.88
2022-12-25T20:08:35.869Z,0.60
2022-12-25T20:13:37.990Z,0.73
2022-12-25T20:18:40.477Z,0.55
2022-12-25T20:23:43.845Z,0.70
2022-12-25T20:28:46.183Z,0.65
2022-12-25T20:33:48.740Z,1.00
2022-12-25T20:38:50.635Z,0.95
2022-12-25T20:43:52.953Z,2.15
2022-12-25T20:48:55.248Z,1.08
2022-12-25T20:53:57.351Z,1.30
2022-12-25T20:59:00.931Z,1.48
2022-12-25T21:04:02.874Z,1.70
2022-12-25T21:09:05.034Z,1.13
2022-12-25T21:14:07.076Z,1.00
2022-12-25T21:19:08.989Z,1.42
2022-12-25T21:24:11.163Z,1.73
2022-12-25T21:29:13.046Z,1.40
2022-12-25T21:34:14.967Z,1.17
2022-12-25T21:39:17.456Z,1.25
2022-12-25T21:44:19.456Z,1.00
2022-12-25T21:49:39.977Z,1.00
2022-12-25T21:54:42.199Z,1.50
2022-12-25T21:59:44.108Z,0.95
2022-12-25T22:04:45.892Z,1.38
2022-12-25T22:09:51.083Z,0.77
2022-12-25T22:14:55.866Z,0.77
2022-12-25T22:19:59.543Z,0.93
2022-12-25T22:25:03.681Z,0.93
2022-12-25T22:30:11.736Z,1.30
2022-12-25T22:35:14.556Z,1.10
2022-12-25T22:40:18.840Z,0.80
2022-12-25T22:45:20.844Z,1.67
2022-12-25T22:50:22.973Z,1.00
2022-12-25T22:55:24.790Z,1.05
2022-12-25T23:00:26.655Z,1.15
2022-12-25T23:05:28.737Z,1.10
2022-12-25T23:10:30.612Z,0.70
2022-12-25T23:15:32.761Z,1.08
2022-12-25T23:20:55.499Z,0.82
2022-12-25T23:26:10.258Z,0.70
2022-12-25T23:31:12.193Z,0.73
2022-12-25T23:36:14.269Z,0.70
2022-12-25T23:41:16.076Z,0.90
2022-12-25T23:46:17.948Z,0.68
2022-12-25T23:51:19.684Z,0.68
2022-12-25T23:56:22.115Z,0.60
